Surface Preassure
0:00 UTC
12:00 UTC (Click for larger versions)
Andrewsfield Outlook

Current time:


  08:54:28pm (GMT)      08:54:28pm (UTC)


Headline: Clear or sunny spells. Further wintry showers. Overnight frost.

This Evening and Tonight: A widespread frost will form during the evening and overnight with largely clear skies and winds falling light. Some wintry showers will persist for a time this evening, and these could be rather heavy with hail. Minimum Temperature -4C.

Saturday: Largely dry and cold weather is forecast with prolonged sunny spells. Remaining frosty over hills. A frost will form widely during the evening, but cloud will increase overnight. Maximum Temperature 3C.

Outlook for Sunday to Tuesday: Rain, with snow mainly across hills, spreading eastwards during Sunday, then clearing overnight with frost. Sunny spells and a chance of rain Monday and Tuesday and much milder but windy.

Forecast

Weather warnings

Nearby METAR/TAF

Stansted (EGSS)


Current conditions: VFR

METAR: EGSS 192050Z AUTO 22008KT 9999 NCD M00/M02 Q1008

TAF: TAF EGSS 191700Z 1918/2024 25010KT 9999 FEW030 PROB30 TEMPO 2000/2004 BKN007 BECMG 2004/2007 VRB03KT 6000 -RADZ BKN005 TEMPO 2007/2013 2000 RADZ BKN003 PROB30 TEMPO 2009/2014 1400 BR BKN001 TEMPO 2014/2017 BKN004 BECMG 2017/2020 9999 NSW SCT011 TEMPO 2020/2024 BKN010

Southend (EGMC)


Current conditions: VFR

METAR: EGMC 192050Z 24010KT CAVOK 03/M01 Q1008

TAF: TAF EGMC 192000Z 1921/2006 24010KT 9999 FEW035 BECMG 2004/2006 18006KT

RAF Wattisham (EGUW)


Current conditions: VFR

METAR: EGUW 191950Z AUTO 24007KT 9999 NCD 00/M01 Q1007

TAF: